createdAt,value
2022-11-24T00:01:04.115Z,12.77
2022-11-24T00:03:33.136Z,13.20
2022-11-24T00:06:04.413Z,13.80
2022-11-24T00:08:31.925Z,13.77
2022-11-24T00:11:04.547Z,13.37
2022-11-24T00:13:32.088Z,12.57
2022-11-24T00:16:06.465Z,13.00
2022-11-24T00:18:35.413Z,12.53
2022-11-24T00:21:03.072Z,13.70
2022-11-24T00:23:30.642Z,12.37
2022-11-24T00:26:05.398Z,13.57
2022-11-24T00:28:33.723Z,14.10
2022-11-24T00:31:01.557Z,15.67
2022-11-24T00:33:29.208Z,14.67
2022-11-24T00:35:59.348Z,15.03
2022-11-24T00:38:27.365Z,15.43
2022-11-24T00:40:54.901Z,15.73
2022-11-24T00:43:22.601Z,15.47
2022-11-24T00:45:50.190Z,15.30
2022-11-24T00:48:17.780Z,15.43
2022-11-24T00:50:45.329Z,14.97
2022-11-24T00:53:14.193Z,15.90
2022-11-24T00:55:41.713Z,14.57
2022-11-24T00:58:09.215Z,16.23
2022-11-24T01:00:36.753Z,14.63
2022-11-24T01:03:04.354Z,14.80
2022-11-24T01:05:31.956Z,13.83
2022-11-24T01:07:59.466Z,13.17
2022-11-24T01:10:28.422Z,11.97
2022-11-24T01:12:55.968Z,12.27
2022-11-24T01:15:23.505Z,17.40
2022-11-24T01:17:51.087Z,13.10
2022-11-24T01:20:18.851Z,12.90
2022-11-24T01:22:48.939Z,13.30
2022-11-24T01:25:17.038Z,14.77
2022-11-24T01:27:45.971Z,16.43
2022-11-24T01:30:13.555Z,16.27
2022-11-24T01:32:41.101Z,13.33
2022-11-24T01:35:09.943Z,11.87
2022-11-24T01:37:37.479Z,18.47
2022-11-24T01:40:05.855Z,16.27
2022-11-24T01:42:41.047Z,12.13
2022-11-24T01:45:33.295Z,14.63
2022-11-24T01:48:05.489Z,12.27
2022-11-24T01:50:35.090Z,13.47
2022-11-24T01:53:03.046Z,14.40
2022-11-24T01:55:35.542Z,14.63
2022-11-24T01:58:06.279Z,14.50
2022-11-24T02:00:37.220Z,12.47
2022-11-24T02:03:05.081Z,13.87
2022-11-24T02:05:40.144Z,14.63
2022-11-24T02:08:15.752Z,14.50
2022-11-24T02:10:45.304Z,12.70
2022-11-24T02:13:14.000Z,14.50
2022-11-24T02:15:43.164Z,15.50
2022-11-24T02:18:11.024Z,15.23
2022-11-24T02:20:38.762Z,17.00
2022-11-24T02:23:16.415Z,13.40
2022-11-24T02:25:53.784Z,16.40
2022-11-24T02:28:27.813Z,16.87
2022-11-24T02:30:55.562Z,14.60
2022-11-24T02:33:25.222Z,16.70
2022-11-24T02:35:53.053Z,14.30
2022-11-24T02:38:20.596Z,16.13
2022-11-24T02:40:49.898Z,16.80
2022-11-24T02:43:22.304Z,18.83
2022-11-24T02:45:51.231Z,14.20
2022-11-24T02:48:19.627Z,11.77
2022-11-24T02:50:47.199Z,9.47
2022-11-24T02:53:14.800Z,11.60
2022-11-24T02:55:42.336Z,11.00
2022-11-24T02:58:10.043Z,9.50
2022-11-24T03:00:37.584Z,11.63
2022-11-24T03:03:06.642Z,5.80
2022-11-24T03:05:34.260Z,8.97
2022-11-24T03:08:01.788Z,7.57
2022-11-24T03:10:29.464Z,6.80
2022-11-24T03:12:57.344Z,11.20
2022-11-24T03:15:25.123Z,9.87
2022-11-24T03:17:56.385Z,7.57
2022-11-24T03:20:25.963Z,14.27
2022-11-24T03:22:53.912Z,11.70
2022-11-24T03:25:22.031Z,7.10
2022-11-24T03:27:49.564Z,7.67
2022-11-24T03:30:17.732Z,6.97
2022-11-24T03:32:45.268Z,8.10
2022-11-24T03:35:13.063Z,11.13
2022-11-24T03:37:41.972Z,7.33
2022-11-24T03:40:10.528Z,7.47
2022-11-24T03:42:38.059Z,6.60
2022-11-24T03:47:54.018Z,6.50
2022-11-24T03:50:21.554Z,5.87
2022-11-24T03:52:50.450Z,6.43
2022-11-24T03:55:18.005Z,6.20
2022-11-24T03:57:45.617Z,6.30
2022-11-24T04:00:13.978Z,6.53
2022-11-24T04:02:41.572Z,5.67
2022-11-24T04:05:09.632Z,6.17
2022-11-24T04:07:37.314Z,6.50
2022-11-24T04:10:07.817Z,5.70
2022-11-24T04:12:46.644Z,8.70
2022-11-24T04:15:16.451Z,5.97
2022-11-24T04:17:44.376Z,6.87
2022-11-24T04:20:13.318Z,5.90
2022-11-24T04:22:41.201Z,7.47
2022-11-24T04:25:11.275Z,6.30
2022-11-24T04:27:39.488Z,6.10
2022-11-24T04:30:08.477Z,6.10
2022-11-24T04:32:36.287Z,6.13
2022-11-24T04:35:04.162Z,5.47
2022-11-24T04:37:31.711Z,4.87
2022-11-24T04:39:59.212Z,5.67
2022-11-24T04:42:28.110Z,5.33
2022-11-24T04:44:55.680Z,5.10
2022-11-24T04:47:25.195Z,5.23
2022-11-24T04:49:53.178Z,5.23
2022-11-24T04:52:22.883Z,4.90
2022-11-24T04:54:50.741Z,4.50
2022-11-24T04:57:19.689Z,5.13
2022-11-24T04:59:48.622Z,4.90
2022-11-24T05:02:16.195Z,4.73
2022-11-24T05:04:43.811Z,5.53
2022-11-24T05:07:17.971Z,5.67
2022-11-24T05:10:04.189Z,5.77
2022-11-24T05:12:31.957Z,5.83
2022-11-24T05:15:01.736Z,5.47
2022-11-24T05:17:30.804Z,5.50
2022-11-24T05:19:58.518Z,6.63
2022-11-24T05:22:26.895Z,6.73
2022-11-24T05:24:54.507Z,6.80
2022-11-24T05:27:22.228Z,8.17
2022-11-24T05:29:50.042Z,6.80
2022-11-24T05:32:18.969Z,6.90
2022-11-24T05:34:46.510Z,6.70
2022-11-24T05:37:14.150Z,5.90
2022-11-24T05:39:41.683Z,6.63
2022-11-24T05:42:23.498Z,6.20
2022-11-24T05:44:51.046Z,6.50
2022-11-24T05:47:20.605Z,6.90
2022-11-24T05:49:48.444Z,6.17
2022-11-24T05:52:16.141Z,6.03
2022-11-24T05:54:43.816Z,5.70
2022-11-24T05:57:11.386Z,5.27
2022-11-24T05:59:38.919Z,5.00
2022-11-24T06:02:06.589Z,5.97
2022-11-24T06:04:35.720Z,4.73
2022-11-24T06:07:03.602Z,7.37
2022-11-24T06:09:31.126Z,6.53
2022-11-24T06:11:58.615Z,7.23
2022-11-24T06:14:26.116Z,8.77
2022-11-24T06:16:53.762Z,9.37
2022-11-24T06:19:21.309Z,9.60
2022-11-24T06:21:50.196Z,9.00
2022-11-24T06:24:17.735Z,8.20
2022-11-24T06:26:45.297Z,9.83
2022-11-24T06:29:12.823Z,9.07
2022-11-24T06:31:40.389Z,9.27
2022-11-24T06:34:08.383Z,8.87
2022-11-24T06:36:35.904Z,7.00
2022-11-24T06:39:05.664Z,8.37
2022-11-24T06:41:33.564Z,8.37
2022-11-24T06:44:03.956Z,9.87
2022-11-24T06:46:31.512Z,11.73
2022-11-24T06:49:00.577Z,10.03
2022-11-24T06:51:28.341Z,8.10
2022-11-24T06:53:55.903Z,7.70
2022-11-24T06:56:24.768Z,9.13
2022-11-24T06:58:53.860Z,10.73
2022-11-24T07:01:23.821Z,10.20
2022-11-24T07:03:52.194Z,11.40
2022-11-24T07:06:20.961Z,9.70
2022-11-24T07:08:48.883Z,9.73
2022-11-24T07:11:18.995Z,9.63
2022-11-24T07:13:48.998Z,9.47
2022-11-24T07:16:18.991Z,11.10
2022-11-24T07:18:47.966Z,8.83
2022-11-24T07:21:16.320Z,6.37
2022-11-24T07:23:44.231Z,7.60
2022-11-24T07:26:11.961Z,6.17
2022-11-24T07:28:39.463Z,6.00
2022-11-24T07:31:09.520Z,4.50
2022-11-24T07:33:37.375Z,5.00
2022-11-24T07:36:06.426Z,4.87
2022-11-24T07:38:34.562Z,5.10
2022-11-24T07:41:02.388Z,4.87
2022-11-24T07:43:31.518Z,4.33
2022-11-24T07:45:59.088Z,4.83
2022-11-24T07:48:28.260Z,4.33
2022-11-24T07:50:56.490Z,4.90
2022-11-24T07:53:24.135Z,5.03
2022-11-24T07:55:55.526Z,5.63
2022-11-24T07:58:26.493Z,5.30
2022-11-24T08:00:56.672Z,5.53
2022-11-24T08:03:25.202Z,5.53
2022-11-24T08:08:46.161Z,6.73
2022-11-24T08:11:15.090Z,5.67
2022-11-24T08:13:43.084Z,5.80
2022-11-24T08:16:13.116Z,5.23
2022-11-24T08:18:40.809Z,6.47
2022-11-24T08:21:13.232Z,5.83
2022-11-24T08:23:40.956Z,5.50
2022-11-24T08:26:11.837Z,5.43
2022-11-24T08:28:39.348Z,6.27
2022-11-24T08:31:09.055Z,6.43
2022-11-24T08:33:37.524Z,6.17
2022-11-24T08:36:06.065Z,6.47
2022-11-24T08:38:34.964Z,7.60
2022-11-24T08:41:03.329Z,7.87
2022-11-24T08:43:31.356Z,5.43
2022-11-24T08:46:01.122Z,5.50
2022-11-24T08:48:29.132Z,4.63
2022-11-24T08:50:56.911Z,5.60
2022-11-24T08:53:24.629Z,4.73
2022-11-24T08:55:53.517Z,9.13
2022-11-24T08:58:21.029Z,8.47
2022-11-24T09:00:48.547Z,7.20
2022-11-24T09:03:16.104Z,8.60
2022-11-24T09:05:51.811Z,8.97
2022-11-24T09:08:20.621Z,8.03
2022-11-24T09:10:48.224Z,8.07
2022-11-24T09:13:17.078Z,5.93
2022-11-24T09:15:45.280Z,6.07
2022-11-24T09:18:12.799Z,6.40
2022-11-24T09:20:40.643Z,5.97
2022-11-24T09:23:08.155Z,4.90
2022-11-24T09:25:35.667Z,4.40
2022-11-24T09:28:03.187Z,4.17
2022-11-24T09:30:32.245Z,5.87
2022-11-24T09:32:59.831Z,7.73
2022-11-24T09:35:27.324Z,8.30
2022-11-24T09:37:54.863Z,10.60
2022-11-24T09:40:23.676Z,9.70
2022-11-24T09:42:59.474Z,3.77
2022-11-24T09:46:04.556Z,4.87
2022-11-24T09:48:35.892Z,5.93
2022-11-24T09:51:05.369Z,6.37
2022-11-24T09:53:38.677Z,5.63
2022-11-24T09:56:16.973Z,6.83
2022-11-24T09:58:48.285Z,8.17
2022-11-24T10:01:20.114Z,4.77
2022-11-24T10:03:50.778Z,9.43
2022-11-24T10:06:27.687Z,9.33
2022-11-24T10:09:11.459Z,6.73
2022-11-24T10:11:44.689Z,6.90
2022-11-24T10:14:29.998Z,5.90
2022-11-24T10:17:12.336Z,5.33
2022-11-24T10:19:49.279Z,7.47
2022-11-24T10:22:28.743Z,4.63
2022-11-24T10:25:08.264Z,4.50
2022-11-24T10:27:40.264Z,3.50
2022-11-24T10:30:15.771Z,3.57
2022-11-24T10:32:48.354Z,8.07
2022-11-24T10:35:19.471Z,4.73
2022-11-24T10:38:03.347Z,9.93
2022-11-24T10:43:26.783Z,5.73
2022-11-24T10:45:55.642Z,5.73
2022-11-24T10:48:27.265Z,4.10
2022-11-24T10:51:02.915Z,3.60
2022-11-24T10:53:31.833Z,3.23
2022-11-24T10:56:05.697Z,3.37
2022-11-24T10:58:38.031Z,3.80
2022-11-24T11:01:21.621Z,4.17
2022-11-24T11:03:53.244Z,3.53
2022-11-24T11:06:24.305Z,10.97
2022-11-24T11:09:18.971Z,3.83
2022-11-24T11:11:48.317Z,3.00
2022-11-24T11:14:32.259Z,2.73
2022-11-24T11:17:00.370Z,11.07
2022-11-24T11:19:58.454Z,5.80
2022-11-24T11:22:27.839Z,6.20
2022-11-24T11:25:08.057Z,4.30
2022-11-24T11:27:35.608Z,2.87
2022-11-24T11:36:15.543Z,3.50
2022-11-24T11:38:45.074Z,3.67
2022-11-24T11:41:21.696Z,5.83
2022-11-24T11:43:55.288Z,4.00
2022-11-24T11:46:25.684Z,3.77
2022-11-24T11:48:53.272Z,4.20
2022-11-24T11:51:39.290Z,3.80
2022-11-24T11:54:12.840Z,4.03
2022-11-24T11:56:45.293Z,4.20
2022-11-24T11:59:42.839Z,3.60
2022-11-24T12:02:53.961Z,3.77
2022-11-24T12:05:31.478Z,3.60
2022-11-24T12:08:20.962Z,3.80
2022-11-24T12:10:54.804Z,5.90
2022-11-24T12:13:51.947Z,3.57
2022-11-24T12:16:33.386Z,4.03
2022-11-24T12:19:25.331Z,4.00
2022-11-24T12:22:00.372Z,3.20
2022-11-24T12:24:36.593Z,3.57
2022-11-24T12:27:14.807Z,3.33
2022-11-24T12:30:06.692Z,4.30
2022-11-24T12:32:51.768Z,3.80
2022-11-24T12:35:27.884Z,3.10
2022-11-24T12:38:06.411Z,3.10
2022-11-24T12:40:47.237Z,3.73
2022-11-24T12:43:20.505Z,3.47
2022-11-24T12:45:57.770Z,3.43
2022-11-24T12:48:37.687Z,3.63
2022-11-24T12:51:07.462Z,3.20
2022-11-24T12:53:38.352Z,4.10
2022-11-24T12:56:08.428Z,4.70
2022-11-24T12:58:45.597Z,4.37
2022-11-24T13:01:25.970Z,4.03
2022-11-24T13:04:10.976Z,3.80
2022-11-24T13:06:49.753Z,4.20
2022-11-24T13:09:18.165Z,4.83
2022-11-24T13:11:47.120Z,4.40
2022-11-24T13:14:21.985Z,3.83
2022-11-24T13:17:27.852Z,5.77
2022-11-24T13:19:44.241Z,4.77
2022-11-24T13:22:16.601Z,4.30
2022-11-24T13:24:44.830Z,4.60
2022-11-24T13:27:39.927Z,5.80
2022-11-24T13:30:50.102Z,4.47
2022-11-24T13:33:35.897Z,4.43
2022-11-24T13:36:31.870Z,4.17
2022-11-24T13:39:00.643Z,5.67
2022-11-24T13:42:43.457Z,3.63
2022-11-24T13:44:59.512Z,4.03
2022-11-24T13:47:45.120Z,5.00
2022-11-24T13:50:25.251Z,3.80
2022-11-24T13:53:01.715Z,3.80
2022-11-24T13:55:38.705Z,4.70
2022-11-24T13:58:27.704Z,4.90
2022-11-24T14:01:04.102Z,4.67
2022-11-24T14:03:36.020Z,4.60
2022-11-24T14:06:05.618Z,4.50
2022-11-24T14:08:36.353Z,4.30
2022-11-24T14:11:12.378Z,6.00
2022-11-24T14:13:39.931Z,4.93
2022-11-24T14:16:16.405Z,5.40
2022-11-24T14:18:45.788Z,5.93
2022-11-24T14:21:24.564Z,4.90
2022-11-24T14:23:55.056Z,4.90
2022-11-24T14:26:24.283Z,7.37
2022-11-24T14:28:53.300Z,5.60
2022-11-24T14:31:24.398Z,3.87
2022-11-24T14:34:07.975Z,3.63
2022-11-24T14:36:36.868Z,3.60
2022-11-24T14:39:05.196Z,3.90
2022-11-24T14:41:34.411Z,4.33
2022-11-24T14:44:08.058Z,4.67
2022-11-24T14:46:37.010Z,4.43
2022-11-24T14:49:05.509Z,3.90
2022-11-24T14:51:36.410Z,4.17
2022-11-24T14:54:08.176Z,4.07
2022-11-24T14:56:37.429Z,3.80
2022-11-24T14:59:21.228Z,4.40
2022-11-24T15:01:48.843Z,5.17
2022-11-24T15:04:54.550Z,4.60
2022-11-24T15:07:14.824Z,6.03
2022-11-24T15:09:52.107Z,5.13
2022-11-24T15:12:28.528Z,5.93
2022-11-24T15:14:59.011Z,7.83
2022-11-24T15:17:29.071Z,5.13
2022-11-24T15:20:01.540Z,5.00
2022-11-24T15:22:40.532Z,4.53
2022-11-24T15:25:28.616Z,5.03
2022-11-24T15:27:56.204Z,4.40
2022-11-24T15:30:23.856Z,4.43
2022-11-24T15:32:53.183Z,4.00
2022-11-24T15:35:21.682Z,3.80
2022-11-24T15:37:49.214Z,3.97
2022-11-24T15:40:17.171Z,4.17
2022-11-24T15:42:51.071Z,3.90
2022-11-24T15:45:19.272Z,3.30
2022-11-24T15:47:47.011Z,4.20
2022-11-24T15:50:15.814Z,3.80
2022-11-24T15:52:43.904Z,4.67
2022-11-24T15:55:18.441Z,3.93
2022-11-24T15:57:47.984Z,4.87
2022-11-24T16:00:18.266Z,4.10
2022-11-24T16:02:45.884Z,3.30
2022-11-24T16:05:14.561Z,5.40
2022-11-24T16:07:42.184Z,5.57
2022-11-24T16:10:20.192Z,6.60
2022-11-24T16:12:49.048Z,8.70
2022-11-24T16:15:16.819Z,5.83
2022-11-24T16:17:44.433Z,4.87
2022-11-24T16:20:12.349Z,5.23
2022-11-24T16:22:39.959Z,7.13
2022-11-24T16:25:08.347Z,5.20
2022-11-24T16:27:35.928Z,5.00
2022-11-24T16:30:05.524Z,4.67
2022-11-24T16:32:33.076Z,4.93
2022-11-24T16:35:00.731Z,4.83
2022-11-24T16:37:28.283Z,4.20
2022-11-24T16:39:55.781Z,3.90
2022-11-24T16:42:23.316Z,3.90
2022-11-24T16:44:51.919Z,4.33
2022-11-24T16:47:21.083Z,8.60
2022-11-24T16:49:48.671Z,9.73
2022-11-24T16:52:16.447Z,6.10
2022-11-24T16:54:46.128Z,5.77
2022-11-24T16:57:15.113Z,6.60
2022-11-24T16:59:45.835Z,5.47
2022-11-24T17:02:14.027Z,6.30
2022-11-24T17:04:42.998Z,5.73
2022-11-24T17:07:10.591Z,5.47
2022-11-24T17:09:40.722Z,4.60
2022-11-24T17:12:08.544Z,4.30
2022-11-24T17:14:36.949Z,4.53
2022-11-24T17:17:04.772Z,6.50
2022-11-24T17:19:32.635Z,5.07
2022-11-24T17:22:01.536Z,5.60
2022-11-24T17:24:29.094Z,4.40
2022-11-24T17:26:56.614Z,4.70
2022-11-24T17:29:24.394Z,6.03
2022-11-24T17:31:51.974Z,13.27
2022-11-24T17:34:19.893Z,12.13
2022-11-24T17:36:47.407Z,10.93
2022-11-24T17:39:19.140Z,11.17
2022-11-24T17:41:50.834Z,11.57
2022-11-24T17:44:18.364Z,12.87
2022-11-24T17:46:45.892Z,9.27
2022-11-24T17:49:14.344Z,9.10
2022-11-24T17:51:41.872Z,8.60
2022-11-24T17:54:39.177Z,8.60
2022-11-24T17:56:58.480Z,9.57
2022-11-24T17:59:26.006Z,5.90
2022-11-24T18:01:53.609Z,5.80
2022-11-24T18:04:21.262Z,6.30
2022-11-24T18:06:48.786Z,7.13
2022-11-24T18:09:16.348Z,6.97
2022-11-24T18:11:44.187Z,9.77
2022-11-24T18:14:13.080Z,8.70
2022-11-24T18:16:40.634Z,6.67
2022-11-24T18:19:10.903Z,6.20
2022-11-24T18:21:39.961Z,6.33
2022-11-24T18:24:08.211Z,5.20
2022-11-24T18:26:35.750Z,5.83
2022-11-24T18:29:03.447Z,6.03
2022-11-24T18:31:34.204Z,7.60
2022-11-24T18:34:02.455Z,6.50
2022-11-24T18:36:30.926Z,6.53
2022-11-24T18:38:58.672Z,6.83
2022-11-24T18:41:27.050Z,6.03
2022-11-24T18:43:54.583Z,5.97
2022-11-24T18:46:22.277Z,6.03
2022-11-24T18:48:51.928Z,6.80
2022-11-24T18:51:19.583Z,6.20
2022-11-24T18:53:47.795Z,5.17
2022-11-24T18:56:16.749Z,5.00
2022-11-24T18:58:45.116Z,5.60
2022-11-24T19:01:14.569Z,4.63
2022-11-24T19:03:48.785Z,5.00
2022-11-24T19:06:20.008Z,5.20
2022-11-24T19:08:48.732Z,5.63
2022-11-24T19:11:20.350Z,5.27
2022-11-24T19:13:49.027Z,14.20
2022-11-24T19:16:17.787Z,5.93
2022-11-24T19:18:48.949Z,5.27
2022-11-24T19:21:22.777Z,5.87
2022-11-24T19:23:50.955Z,5.93
2022-11-24T19:26:18.797Z,5.20
2022-11-24T19:28:46.483Z,5.40
2022-11-24T19:31:15.796Z,5.87
2022-11-24T19:33:43.510Z,4.87
2022-11-24T19:36:13.842Z,6.47
2022-11-24T19:38:49.785Z,6.80
2022-11-24T19:41:19.255Z,6.33
2022-11-24T19:43:47.292Z,6.10
2022-11-24T19:46:17.400Z,7.10
2022-11-24T19:48:47.156Z,7.03
2022-11-24T19:51:16.688Z,7.17
2022-11-24T19:53:45.898Z,6.93
2022-11-24T19:56:15.346Z,7.03
2022-11-24T19:58:43.611Z,7.37
2022-11-24T20:01:14.074Z,7.20
2022-11-24T20:03:43.581Z,7.37
2022-11-24T20:06:12.691Z,6.80
2022-11-24T20:08:42.426Z,5.87
2022-11-24T20:11:13.127Z,6.63
2022-11-24T20:13:42.579Z,5.53
2022-11-24T20:16:12.018Z,5.80
2022-11-24T20:18:42.257Z,5.60
2022-11-24T20:21:11.650Z,6.33
2022-11-24T20:23:39.926Z,6.83
2022-11-24T20:26:09.228Z,7.80
2022-11-24T20:28:38.690Z,7.70
2022-11-24T20:31:07.913Z,7.37
2022-11-24T20:33:36.808Z,5.60
2022-11-24T20:36:05.934Z,5.63
2022-11-24T20:38:34.416Z,5.47
2022-11-24T20:41:08.825Z,6.03
2022-11-24T20:43:39.070Z,5.83
2022-11-24T20:46:09.594Z,6.67
2022-11-24T20:48:37.677Z,6.40
2022-11-24T20:51:06.330Z,6.03
2022-11-24T20:53:34.176Z,6.30
2022-11-24T20:56:06.232Z,6.00
2022-11-24T20:58:35.043Z,5.23
2022-11-24T21:01:09.765Z,5.83
2022-11-24T21:03:42.742Z,7.10
2022-11-24T21:06:11.196Z,7.70
2022-11-24T21:08:40.130Z,6.60
2022-11-24T21:11:10.266Z,6.50
2022-11-24T21:13:39.042Z,6.27
2022-11-24T21:16:15.470Z,5.43
2022-11-24T21:18:44.433Z,5.67
2022-11-24T21:21:12.991Z,5.73
2022-11-24T21:23:40.837Z,6.03
2022-11-24T21:26:16.335Z,5.90
2022-11-24T21:28:45.478Z,5.57
2022-11-24T21:31:17.255Z,5.60
2022-11-24T21:33:47.356Z,5.80
2022-11-24T21:36:17.735Z,5.53
2022-11-24T21:38:50.223Z,5.80
2022-11-24T21:41:18.435Z,7.13
2022-11-24T21:43:46.440Z,6.47
2022-11-24T21:46:15.501Z,7.40
2022-11-24T21:48:43.662Z,7.27
2022-11-24T21:51:13.984Z,8.70
2022-11-24T21:53:41.748Z,8.03
2022-11-24T21:56:12.869Z,7.37
2022-11-24T21:58:45.509Z,7.20
2022-11-24T22:01:15.374Z,7.60
2022-11-24T22:03:43.166Z,6.77
2022-11-24T22:06:10.956Z,7.50
2022-11-24T22:08:38.656Z,6.93
2022-11-24T22:11:08.467Z,7.87
2022-11-24T22:13:36.268Z,6.93
2022-11-24T22:16:05.876Z,6.93
2022-11-24T22:18:36.872Z,6.33
2022-11-24T22:21:05.677Z,6.60
2022-11-24T22:23:35.970Z,7.27
2022-11-24T22:26:04.761Z,7.93
2022-11-24T22:28:33.491Z,6.77
2022-11-24T22:31:04.678Z,11.17
2022-11-24T22:33:32.214Z,13.50
2022-11-24T22:36:02.264Z,8.70
2022-11-24T22:38:31.104Z,7.13
2022-11-24T22:41:02.543Z,8.07
2022-11-24T22:43:32.541Z,7.93
2022-11-24T22:46:04.328Z,8.53
2022-11-24T22:48:32.112Z,6.10
2022-11-24T22:51:05.486Z,11.13
2022-11-24T22:53:33.464Z,11.23
2022-11-24T22:56:04.809Z,13.70
2022-11-24T22:58:33.243Z,11.03
2022-11-24T23:01:05.064Z,9.27
2022-11-24T23:03:35.645Z,9.63
2022-11-24T23:06:06.124Z,9.50
2022-11-24T23:08:34.872Z,7.60
2022-11-24T23:11:03.592Z,7.50
2022-11-24T23:13:31.584Z,7.90
2022-11-24T23:16:02.993Z,8.73
2022-11-24T23:18:30.892Z,7.77
2022-11-24T23:21:04.529Z,7.80
2022-11-24T23:23:33.692Z,8.30
2022-11-24T23:26:01.741Z,7.83
2022-11-24T23:28:29.375Z,6.70
2022-11-24T23:31:01.126Z,6.70
2022-11-24T23:33:28.692Z,6.43
2022-11-24T23:35:56.220Z,7.80
2022-11-24T23:38:28.503Z,5.80
2022-11-24T23:40:57.617Z,7.90
2022-11-24T23:43:25.149Z,7.40
2022-11-24T23:45:53.261Z,6.60
2022-11-24T23:48:20.835Z,7.17
2022-11-24T23:50:48.463Z,7.10
2022-11-24T23:53:15.992Z,6.87
2022-11-24T23:55:43.496Z,11.30
2022-11-24T23:58:12.697Z,7.83
